Oscar Dyson — WTEP — position and weather

sailwx.info

Track history (hours):
 
Tides and Currents Weather Stations Pressure Air Temp Water Temp Dewpoint Dewpoint Depression Visibility Wind Speed Wind Dir Waves Ship Positions

Oceanographic research ship Oscar Dyson (USA)

Ship's website: http://www.moc.noaa.gov/od/

Detailed information on ship capabilities available from University of Delaware's Ocean Information Center and ARCUS's ALIAS (Arctic Logistics Information and Support) project.

Last reported at 2018-May-20 13:00 UTC. Time now 2018-May-20 13:56 UTC.
Position N 55°24' W 164°54'.

Type: Ship. MMSI: 369959000.

Wind from 010 at 14 knots

Barometer 996.4 mb
Air temperature 5.6 ° C
Dewpoint 5.6 ° C

Date/timePositionNaut miles runAvg speedWind from/ knotsBaromVisibWave heightAir tempDewpointWater temp
2018-May-20 13:00N 55°24' W 164°54'1212.5 010 / 14996.4 5.6 5.6
2018-May-20 12:00N 55°36' W 164°48'7 6.9 030 / 15996.8 5.4 5.4
2018-May-20 11:00N 55°42' W 164°42'1212.0 020 / 14996.9 5.3 5.3
2018-May-20 10:00N 55°54' W 164°42'19 9.6 030 / 16997.3 5.2 5.2
2018-May-20 08:00N 56°12' W 164°30'1212.5 020 / 15997.9 5.0 5.0
2018-May-20 07:00N 56°24' W 164°24'12 6.2 030 / 15998.1 5.2 5.2
2018-May-20 05:00N 56°36' W 164°18'7 6.8 040 / 16998.7 6.1 6.1
2018-May-20 04:00N 56°42' W 164°12'1212.4 040 / 14999.2 4.1 4.1
2018-May-20 03:00N 56°54' W 164°06'1212.0 050 / 18999.7 5.1 5.1
2018-May-20 02:00N 57°06' W 164°06'1212.4 040 / 201000.3 4.8 4.8
2018-May-20 01:00N 57°18' W 164°00'7 6.8 050 / 191001.0 5.4 5.4
2018-May-20 00:00N 57°24' W 163°54'1818.3 040 / 141001.7 5.6 5.6
2018-May-19 23:00N 57°42' W 163°48'7 6.8 040 / 131002.2 4.4 4.4
2018-May-19 22:00N 57°48' W 163°42'1212.4 050 / 131002.7 3.9 3.9
2018-May-19 21:00N 58°00' W 163°36'0 0.0 060 / 91003.0 3.7 3.7
2018-May-19 20:00N 58°00' W 163°36'13 6.4 060 / 91003.0 3.7 3.7
2018-May-19 18:00N 58°00' W 163°12'9 8.7 080 / 81003.4 3.9 3.9
2018-May-19 17:00N 57°54' W 163°00'1212.4 040 / 51003.2 4.0 4.0
2018-May-19 16:00N 57°42' W 163°06'6 6.0 040 / 71002.9 4.0 4.0
2018-May-19 15:00N 57°36' W 163°06'1212.4 050 / 91002.7 4.0 4.0
2018-May-19 14:00N 57°24' W 163°12'7 6.8 050 / 101002.6 4.3 4.3
2018-May-19 13:00N 57°18' W 163°18'7 6.8 050 / 91002.9 4.2 4.2
2018-May-19 12:00N 57°12' W 163°24'1212.4 040 / 71002.8 4.4 4.4
2018-May-19 11:00N 57°00' W 163°30'1212.0 050 / 121002.6 4.7 4.7
2018-May-19 10:00N 56°48' W 163°30'19 9.6 040 / 111002.2 4.9 4.9
2018-May-19 08:00N 56°30' W 163°42'1212.5 030 / 111002.1 5.2 5.2
2018-May-19 07:00N 56°18' W 163°48'1212.5 050 / 91002.3 5.2 5.2
2018-May-19 06:00N 56°06' W 163°54'7 6.9 060 / 91001.9 5.6 5.6
2018-May-19 05:00N 56°00' W 164°00'1212.5 060 / 81001.9 5.6 5.6
2018-May-19 04:00N 55°48' W 164°06'1212.0 040 / 81001.7 5.5 5.5
2018-May-19 03:00N 55°36' W 164°06'1211.8 040 / 121001.7 5.6 5.6
2018-May-19 02:00N 55°42' W 163°48'1211.8 030 / 111002.2 5.6 5.6
2018-May-19 01:00N 55°48' W 163°30'9 9.0 020 / 41002.7 5.8 5.8
2018-May-19 00:00N 55°54' W 163°18'1212.5 060 / 71003.0 6.1 6.1
2018-May-18 23:00N 56°06' W 163°12'1212.0 070 / 141003.1 5.8 5.8
2018-May-18 22:00N 56°18' W 163°12'1212.5 060 / 131003.8 5.5 5.5
2018-May-18 21:00N 56°30' W 163°06'7 6.9 060 / 131004.3 5.3 5.3
2018-May-18 20:00N 56°36' W 163°00'1212.4 060 / 141004.8 5.4 5.4
2018-May-18 19:00N 56°48' W 162°54'7 6.8 060 / 161005.4 5.4 5.4
2018-May-18 18:00N 56°54' W 162°48'1212.0 060 / 141005.8 4.8 4.8
2018-May-18 17:00N 57°06' W 162°48'7 6.8 080 / 211006.2 4.8 4.8
2018-May-18 16:00N 57°12' W 162°42'7 6.8 080 / 151006.6 4.6 4.6
2018-May-18 15:00N 57°18' W 162°36'1212.4 070 / 211007.0 4.3 4.3
2018-May-18 14:00N 57°30' W 162°30'1212.0 070 / 201007.8 4.2 4.2
2018-May-18 13:00N 57°42' W 162°30'1212.4 070 / 191008.5 4.2 4.2
2018-May-18 12:00N 57°54' W 162°24'7 6.8 080 / 151009.4 4.0 4.0
2018-May-18 11:00N 58°00' W 162°18'1212.4 080 / 171009.9 4.2 4.2
2018-May-18 10:00N 58°12' W 162°12'3 3.2 080 / 191010.8 4.4 4.4
2018-May-18 09:00N 58°12' W 162°06'9 9.5 100 / 111011.0 4.8 4.8
2018-May-18 08:00N 58°12' W 161°48'18 9.1 100 / 121011.3 5.5 5.5
2018-May-18 06:00N 57°54' W 161°42'6 6.0 090 / 161010.1 5.1 5.1
2018-May-18 05:00N 57°48' W 161°42'1212.4 080 / 161009.9 4.9 4.9
2018-May-18 04:00N 57°36' W 161°48'7 6.8 080 / 181009.5 5.0 5.0
2018-May-18 03:00N 57°30' W 161°54'6 6.0 080 / 171009.2 5.4 5.4
2018-May-18 02:00N 57°24' W 161°54'7 6.8 070 / 161009.2 5.2 5.2
2018-May-18 01:00N 57°18' W 162°00'1212.4 070 / 161009.3 5.3 5.3
2018-May-18 00:00N 57°06' W 162°06'1212.4 080 / 111009.5 5.1 5.1
2018-May-17 23:00N 56°54' W 162°12'6 6.0 090 / 111009.3 5.3 5.3
2018-May-17 22:00N 56°48' W 162°12'0 0.0 080 / 141009.1 5.1 5.1
2018-May-17 21:00N 56°48' W 162°12'0 0.0 080 / 141009.1 5.3 5.3
2018-May-17 19:00N 56°48' W 162°12'7 6.8 090 / 41009.3 5.0 5.0
2018-May-17 18:00N 56°42' W 162°18'1212.4 080 / 111009.1 4.8 4.8
2018-May-17 17:00N 56°30' W 162°24'6 6.0 080 / 111008.6 5.0 5.0
2018-May-17 16:00N 56°24' W 162°24'1212.5 070 / 121008.7 4.8 4.8
2018-May-17 15:00N 56°12' W 162°30'7 6.9 070 / 111008.4 5.1 5.1
2018-May-17 14:00N 56°06' W 162°36'1211.7 060 / 111008.8 5.4 5.4
2018-May-17 13:00N 56°12' W 162°18'1514.6 060 / 141009.5 5.6 5.6
2018-May-17 12:00N 56°18' W 161°54'7 6.9 050 / 161010.2 5.0 5.0
2018-May-17 11:00N 56°24' W 161°48'1212.4 040 / 211010.9 5.1 5.1
2018-May-17 10:00N 56°36' W 161°42'7 6.8 030 / 181012.1 5.0 5.0
2018-May-17 09:00N 56°42' W 161°36'6 6.0 020 / 151012.8 4.6 4.6
2018-May-17 08:00N 56°48' W 161°36'1212.4 020 / 171013.8 5.1 5.1
2018-May-17 07:00N 57°00' W 161°30'7 6.8 020 / 161014.7 5.1 4.7
2018-May-17 06:00N 57°06' W 161°24'1212.4 010 / 151015.6 4.8 3.3
2018-May-17 05:00N 57°18' W 161°18'6 6.0 010 / 141016.3 4.6 3.0
2018-May-17 04:00N 57°24' W 161°18'1212.4 1016.7 4.6 2.8
2018-May-17 03:00N 57°36' W 161°12'1616.1 1017.3 4.8 3.1
2018-May-17 02:00N 57°36' W 160°42'6 6.4 010 / 131017.4 4.2 4.2
2018-May-17 01:00N 57°36' W 160°30'7 6.8 010 / 101017.9 4.3 4.3
2018-May-17 00:00N 57°30' W 160°36'1212.4 010 / 111018.0 4.0 4.0
2018-May-16 23:00N 57°18' W 160°42'1212.0 010 / 161018.2 3.9 3.9
2018-May-16 22:00N 57°06' W 160°42'1212.4 1017.9 3.9 3.9
2018-May-16 21:00N 56°54' W 160°48'7 6.8 1017.9 3.8 1.8
2018-May-16 20:00N 56°48' W 160°54'1212.4 1017.6 3.8 1.1
2018-May-16 19:00N 56°36' W 161°00'7 6.6 1017.4 4.0 1.8
2018-May-16 18:00N 56°36' W 160°48'1211.6 030 / 171017.8 3.8 1.3
2018-May-16 17:00N 56°42' W 160°30'1211.6 020 / 181017.5 3.7 2.2
2018-May-16 16:00N 56°48' W 160°12'6 6.0 020 / 151017.3 3.7 2.0
2018-May-16 15:00N 56°54' W 160°12'1212.4 020 / 171017.7 3.4 1.6
2018-May-16 14:00N 57°06' W 160°06'7 6.8 020 / 161018.0 3.2 1.4
2018-May-16 13:00N 57°12' W 160°00'1212.4 020 / 131017.9 3.2 0.8
2018-May-16 12:00N 57°24' W 159°54'1212.4 1018.0 3.1 0.7
2018-May-16 11:00N 57°36' W 159°48'1212.4 010 / 121018.1 2.9 0.3
2018-May-16 10:00N 57°48' W 159°42'6 3.2 1018.3 2.9-0.2
2018-May-16 08:00N 57°48' W 159°30'1312.8 020 / 61018.3 3.4-0.7
2018-May-16 07:00N 57°48' W 159°06'1212.0 010 / 71017.9 3.7-0.1
2018-May-16 06:00N 57°36' W 159°06'1212.4 350 / 91017.3 3.9 0.1
2018-May-16 05:00N 57°24' W 159°12'7 3.4 010 / 81016.9 3.7 0.5
2018-May-16 03:00N 57°18' W 159°18'1212.4 020 / 91016.6 4.1-0.9
2018-May-16 02:00N 57°06' W 159°24'3 3.3 020 / 101016.5 4.2-0.2
2018-May-16 01:00N 57°06' W 159°18'1111.5 030 / 101016.7 4.3-1.0
2018-May-16 00:00N 57°12' W 159°00'1414.3 020 / 91016.7 4.0-0.5
2018-May-15 23:00N 57°18' W 158°36'9 8.8 340 / 71016.9 3.8-0.3
2018-May-15 22:00N 57°12' W 158°48'9 8.9 330 / 71016.8 3.7-1.0
2018-May-15 21:00N 57°06' W 159°00'1515.5 300 / 51016.6 3.7-0.8
2018-May-15 20:00N 56°54' W 159°18'1211.5 290 / 21016.4 3.6-0.1
2018-May-15 19:00N 56°48' W 159°36'9 8.9 350 / 21016.2 3.7 0.5
2018-May-15 18:00N 56°42' W 159°48'9 8.9 170 / 11016.1 3.5-0.7
2018-May-15 17:00N 56°36' W 160°00'1514.5 210 / 51015.8 3.3-0.8
2018-May-15 16:00N 56°30' W 160°24'0 0.0 300 / 51015.8 3.2-3.5
2018-May-15 15:00N 56°30' W 160°24'7 6.9 170 / 111016.1 0.9 0.9
2018-May-15 14:00N 56°24' W 160°30'14 6.9 270 / 121016.0 2.9 1.3
2018-May-15 12:00N 56°12' W 160°42'1313.4 230 / 101016.5 2.4 2.2
2018-May-15 11:00N 56°12' W 161°06'7 6.7 190 / 71016.6 2.4 0.3
2018-May-15 10:00N 56°12' W 161°18'1211.7 190 / 31016.9 2.8-0.4
2018-May-15 09:00N 56°06' W 161°36'1514.7 220 / 61017.0 3.0-0.7
2018-May-15 08:00N 56°00' W 162°00'0 0.0 280 / 91017.1 3.3-1.7
2018-May-15 07:00N 56°00' W 162°00'1211.7 260 / 51017.1 3.4-2.1
2018-May-15 06:00N 55°54' W 162°18'1211.8 290 / 81017.0 3.4-1.9
2018-May-15 05:00N 55°48' W 162°36'9 9.0 290 / 71017.1 3.6-2.9
2018-May-15 04:00N 55°42' W 162°48'1212.5 290 / 91017.1 3.6-0.7
2018-May-15 03:00N 55°30' W 162°54'3 3.4 290 / 71017.2 3.8 0.1
2018-May-15 02:00N 55°30' W 163°00'1413.6 330 / 41017.6 4.1 1.2
2018-May-15 01:00N 55°30' W 163°24'7 6.8 310 / 81017.9 3.6 1.4
2018-May-15 00:00N 55°30' W 163°36'6 6.0 290 / 81018.3 3.7 2.0
2018-May-14 23:00N 55°24' W 163°36'1212.5 290 / 101018.5 3.5 0.8
2018-May-14 22:00N 55°12' W 163°42'0 0.0 270 / 101018.8 4.8 1.5
2018-May-14 21:00N 55°12' W 163°42'0 0.0 290 / 61018.7 4.6 1.7
2018-May-14 20:00N 55°12' W 163°42'1010.3 300 / 81018.6 5.2 1.9
2018-May-14 19:00N 55°12' W 164°00'   300 / 81018.5 3.6 0.7
2018-May-10 18:00N 53°54' W 166°30'0 0.0 988.5 3.9 0.2
2018-May-10 17:00N 53°54' W 166°30'0 0.0 130 / 1988.5 2.4-0.7
2018-May-10 16:00N 53°54' W 166°30'0 0.0 220 / 3988.4 2.0-1.9
2018-May-10 15:00N 53°54' W 166°30'0 0.0 180 / 3988.7 1.4 0.5
2018-May-10 14:00N 53°54' W 166°30'0 0.0 180 / 3988.9 1.9-0.2
2018-May-10 13:00N 53°54' W 166°30'   130 / 4989.0 1.7 0.4
Track history (hours):
 
Tides and Currents Weather Stations Pressure Air Temp Water Temp Dewpoint Dewpoint Depression Visibility Wind Speed Wind Dir Waves Ship Positions

Oceanographic research ship Oscar Dyson (USA)

Ship's website: http://www.moc.noaa.gov/od/

Detailed information on ship capabilities available from University of Delaware's Ocean Information Center and ARCUS's ALIAS (Arctic Logistics Information and Support) project.

Last reported at 2018-May-20 13:00 UTC. Time now 2018-May-20 13:56 UTC.
Position N 55°24' W 164°54'.

Type: Ship. MMSI: 369959000.

Wind from 010 at 14 knots

Barometer 996.4 mb
Air temperature 5.6 ° C
Dewpoint 5.6 ° C

Date/timePositionNaut miles runAvg speedWind from/ knotsBaromVisibWave heightAir tempDewpointWater temp
2018-May-20 13:00N 55°24' W 164°54'1212.5 010 / 14996.4 5.6 5.6
2018-May-20 12:00N 55°36' W 164°48'7 6.9 030 / 15996.8 5.4 5.4
2018-May-20 11:00N 55°42' W 164°42'1212.0 020 / 14996.9 5.3 5.3
2018-May-20 10:00N 55°54' W 164°42'19 9.6 030 / 16997.3 5.2 5.2
2018-May-20 08:00N 56°12' W 164°30'1212.5 020 / 15997.9 5.0 5.0
2018-May-20 07:00N 56°24' W 164°24'12 6.2 030 / 15998.1 5.2 5.2
2018-May-20 05:00N 56°36' W 164°18'7 6.8 040 / 16998.7 6.1 6.1
2018-May-20 04:00N 56°42' W 164°12'1212.4 040 / 14999.2 4.1 4.1
2018-May-20 03:00N 56°54' W 164°06'1212.0 050 / 18999.7 5.1 5.1
2018-May-20 02:00N 57°06' W 164°06'1212.4 040 / 201000.3 4.8 4.8
2018-May-20 01:00N 57°18' W 164°00'7 6.8 050 / 191001.0 5.4 5.4
2018-May-20 00:00N 57°24' W 163°54'1818.3 040 / 141001.7 5.6 5.6
2018-May-19 23:00N 57°42' W 163°48'7 6.8 040 / 131002.2 4.4 4.4
2018-May-19 22:00N 57°48' W 163°42'1212.4 050 / 131002.7 3.9 3.9
2018-May-19 21:00N 58°00' W 163°36'0 0.0 060 / 91003.0 3.7 3.7
2018-May-19 20:00N 58°00' W 163°36'13 6.4 060 / 91003.0 3.7 3.7
2018-May-19 18:00N 58°00' W 163°12'9 8.7 080 / 81003.4 3.9 3.9
2018-May-19 17:00N 57°54' W 163°00'1212.4 040 / 51003.2 4.0 4.0
2018-May-19 16:00N 57°42' W 163°06'6 6.0 040 / 71002.9 4.0 4.0
2018-May-19 15:00N 57°36' W 163°06'1212.4 050 / 91002.7 4.0 4.0
2018-May-19 14:00N 57°24' W 163°12'7 6.8 050 / 101002.6 4.3 4.3
2018-May-19 13:00N 57°18' W 163°18'7 6.8 050 / 91002.9 4.2 4.2
2018-May-19 12:00N 57°12' W 163°24'1212.4 040 / 71002.8 4.4 4.4
2018-May-19 11:00N 57°00' W 163°30'1212.0 050 / 121002.6 4.7 4.7
2018-May-19 10:00N 56°48' W 163°30'19 9.6 040 / 111002.2 4.9 4.9
2018-May-19 08:00N 56°30' W 163°42'1212.5 030 / 111002.1 5.2 5.2
2018-May-19 07:00N 56°18' W 163°48'1212.5 050 / 91002.3 5.2 5.2
2018-May-19 06:00N 56°06' W 163°54'7 6.9 060 / 91001.9 5.6 5.6
2018-May-19 05:00N 56°00' W 164°00'1212.5 060 / 81001.9 5.6 5.6
2018-May-19 04:00N 55°48' W 164°06'1212.0 040 / 81001.7 5.5 5.5
2018-May-19 03:00N 55°36' W 164°06'1211.8 040 / 121001.7 5.6 5.6
2018-May-19 02:00N 55°42' W 163°48'1211.8 030 / 111002.2 5.6 5.6
2018-May-19 01:00N 55°48' W 163°30'9 9.0 020 / 41002.7 5.8 5.8
2018-May-19 00:00N 55°54' W 163°18'1212.5 060 / 71003.0 6.1 6.1
2018-May-18 23:00N 56°06' W 163°12'1212.0 070 / 141003.1 5.8 5.8
2018-May-18 22:00N 56°18' W 163°12'1212.5 060 / 131003.8 5.5 5.5
2018-May-18 21:00N 56°30' W 163°06'7 6.9 060 / 131004.3 5.3 5.3
2018-May-18 20:00N 56°36' W 163°00'1212.4 060 / 141004.8 5.4 5.4
2018-May-18 19:00N 56°48' W 162°54'7 6.8 060 / 161005.4 5.4 5.4
2018-May-18 18:00N 56°54' W 162°48'1212.0 060 / 141005.8 4.8 4.8
2018-May-18 17:00N 57°06' W 162°48'7 6.8 080 / 211006.2 4.8 4.8
2018-May-18 16:00N 57°12' W 162°42'7 6.8 080 / 151006.6 4.6 4.6
2018-May-18 15:00N 57°18' W 162°36'1212.4 070 / 211007.0 4.3 4.3
2018-May-18 14:00N 57°30' W 162°30'1212.0 070 / 201007.8 4.2 4.2
2018-May-18 13:00N 57°42' W 162°30'1212.4 070 / 191008.5 4.2 4.2
2018-May-18 12:00N 57°54' W 162°24'7 6.8 080 / 151009.4 4.0 4.0
2018-May-18 11:00N 58°00' W 162°18'1212.4 080 / 171009.9 4.2 4.2
2018-May-18 10:00N 58°12' W 162°12'3 3.2 080 / 191010.8 4.4 4.4
2018-May-18 09:00N 58°12' W 162°06'9 9.5 100 / 111011.0 4.8 4.8
2018-May-18 08:00N 58°12' W 161°48'18 9.1 100 / 121011.3 5.5 5.5
2018-May-18 06:00N 57°54' W 161°42'6 6.0 090 / 161010.1 5.1 5.1
2018-May-18 05:00N 57°48' W 161°42'1212.4 080 / 161009.9 4.9 4.9
2018-May-18 04:00N 57°36' W 161°48'7 6.8 080 / 181009.5 5.0 5.0
2018-May-18 03:00N 57°30' W 161°54'6 6.0 080 / 171009.2 5.4 5.4
2018-May-18 02:00N 57°24' W 161°54'7 6.8 070 / 161009.2 5.2 5.2
2018-May-18 01:00N 57°18' W 162°00'1212.4 070 / 161009.3 5.3 5.3
2018-May-18 00:00N 57°06' W 162°06'1212.4 080 / 111009.5 5.1 5.1
2018-May-17 23:00N 56°54' W 162°12'6 6.0 090 / 111009.3 5.3 5.3
2018-May-17 22:00N 56°48' W 162°12'0 0.0 080 / 141009.1 5.1 5.1
2018-May-17 21:00N 56°48' W 162°12'0 0.0 080 / 141009.1 5.3 5.3
2018-May-17 19:00N 56°48' W 162°12'7 6.8 090 / 41009.3 5.0 5.0
2018-May-17 18:00N 56°42' W 162°18'1212.4 080 / 111009.1 4.8 4.8
2018-May-17 17:00N 56°30' W 162°24'6 6.0 080 / 111008.6 5.0 5.0
2018-May-17 16:00N 56°24' W 162°24'1212.5 070 / 121008.7 4.8 4.8
2018-May-17 15:00N 56°12' W 162°30'7 6.9 070 / 111008.4 5.1 5.1
2018-May-17 14:00N 56°06' W 162°36'1211.7 060 / 111008.8 5.4 5.4
2018-May-17 13:00N 56°12' W 162°18'1514.6 060 / 141009.5 5.6 5.6
2018-May-17 12:00N 56°18' W 161°54'7 6.9 050 / 161010.2 5.0 5.0
2018-May-17 11:00N 56°24' W 161°48'1212.4 040 / 211010.9 5.1 5.1
2018-May-17 10:00N 56°36' W 161°42'7 6.8 030 / 181012.1 5.0 5.0
2018-May-17 09:00N 56°42' W 161°36'6 6.0 020 / 151012.8 4.6 4.6
2018-May-17 08:00N 56°48' W 161°36'1212.4 020 / 171013.8 5.1 5.1
2018-May-17 07:00N 57°00' W 161°30'7 6.8 020 / 161014.7 5.1 4.7
2018-May-17 06:00N 57°06' W 161°24'1212.4 010 / 151015.6 4.8 3.3
2018-May-17 05:00N 57°18' W 161°18'6 6.0 010 / 141016.3 4.6 3.0
2018-May-17 04:00N 57°24' W 161°18'1212.4 1016.7 4.6 2.8
2018-May-17 03:00N 57°36' W 161°12'1616.1 1017.3 4.8 3.1
2018-May-17 02:00N 57°36' W 160°42'6 6.4 010 / 131017.4 4.2 4.2
2018-May-17 01:00N 57°36' W 160°30'7 6.8 010 / 101017.9 4.3 4.3
2018-May-17 00:00N 57°30' W 160°36'1212.4 010 / 111018.0 4.0 4.0
2018-May-16 23:00N 57°18' W 160°42'1212.0 010 / 161018.2 3.9 3.9
2018-May-16 22:00N 57°06' W 160°42'1212.4 1017.9 3.9 3.9
2018-May-16 21:00N 56°54' W 160°48'7 6.8 1017.9 3.8 1.8
2018-May-16 20:00N 56°48' W 160°54'1212.4 1017.6 3.8 1.1
2018-May-16 19:00N 56°36' W 161°00'7 6.6 1017.4 4.0 1.8
2018-May-16 18:00N 56°36' W 160°48'1211.6 030 / 171017.8 3.8 1.3
2018-May-16 17:00N 56°42' W 160°30'1211.6 020 / 181017.5 3.7 2.2
2018-May-16 16:00N 56°48' W 160°12'6 6.0 020 / 151017.3 3.7 2.0
2018-May-16 15:00N 56°54' W 160°12'1212.4 020 / 171017.7 3.4 1.6
2018-May-16 14:00N 57°06' W 160°06'7 6.8 020 / 161018.0 3.2 1.4
2018-May-16 13:00N 57°12' W 160°00'1212.4 020 / 131017.9 3.2 0.8
2018-May-16 12:00N 57°24' W 159°54'1212.4 1018.0 3.1 0.7
2018-May-16 11:00N 57°36' W 159°48'1212.4 010 / 121018.1 2.9 0.3
2018-May-16 10:00N 57°48' W 159°42'6 3.2 1018.3 2.9-0.2
2018-May-16 08:00N 57°48' W 159°30'1312.8 020 / 61018.3 3.4-0.7
2018-May-16 07:00N 57°48' W 159°06'1212.0 010 / 71017.9 3.7-0.1
2018-May-16 06:00N 57°36' W 159°06'1212.4 350 / 91017.3 3.9 0.1
2018-May-16 05:00N 57°24' W 159°12'7 3.4 010 / 81016.9 3.7 0.5
2018-May-16 03:00N 57°18' W 159°18'1212.4 020 / 91016.6 4.1-0.9
2018-May-16 02:00N 57°06' W 159°24'3 3.3 020 / 101016.5 4.2-0.2
2018-May-16 01:00N 57°06' W 159°18'1111.5 030 / 101016.7 4.3-1.0
2018-May-16 00:00N 57°12' W 159°00'1414.3 020 / 91016.7 4.0-0.5
2018-May-15 23:00N 57°18' W 158°36'9 8.8 340 / 71016.9 3.8-0.3
2018-May-15 22:00N 57°12' W 158°48'9 8.9 330 / 71016.8 3.7-1.0
2018-May-15 21:00N 57°06' W 159°00'1515.5 300 / 51016.6 3.7-0.8
2018-May-15 20:00N 56°54' W 159°18'1211.5 290 / 21016.4 3.6-0.1
2018-May-15 19:00N 56°48' W 159°36'9 8.9 350 / 21016.2 3.7 0.5
2018-May-15 18:00N 56°42' W 159°48'9 8.9 170 / 11016.1 3.5-0.7
2018-May-15 17:00N 56°36' W 160°00'1514.5 210 / 51015.8 3.3-0.8
2018-May-15 16:00N 56°30' W 160°24'0 0.0 300 / 51015.8 3.2-3.5
2018-May-15 15:00N 56°30' W 160°24'7 6.9 170 / 111016.1 0.9 0.9
2018-May-15 14:00N 56°24' W 160°30'14 6.9 270 / 121016.0 2.9 1.3
2018-May-15 12:00N 56°12' W 160°42'1313.4 230 / 101016.5 2.4 2.2
2018-May-15 11:00N 56°12' W 161°06'7 6.7 190 / 71016.6 2.4 0.3
2018-May-15 10:00N 56°12' W 161°18'1211.7 190 / 31016.9 2.8-0.4
2018-May-15 09:00N 56°06' W 161°36'1514.7 220 / 61017.0 3.0-0.7
2018-May-15 08:00N 56°00' W 162°00'0 0.0 280 / 91017.1 3.3-1.7
2018-May-15 07:00N 56°00' W 162°00'1211.7 260 / 51017.1 3.4-2.1
2018-May-15 06:00N 55°54' W 162°18'1211.8 290 / 81017.0 3.4-1.9
2018-May-15 05:00N 55°48' W 162°36'9 9.0 290 / 71017.1 3.6-2.9
2018-May-15 04:00N 55°42' W 162°48'1212.5 290 / 91017.1 3.6-0.7
2018-May-15 03:00N 55°30' W 162°54'3 3.4 290 / 71017.2 3.8 0.1
2018-May-15 02:00N 55°30' W 163°00'1413.6 330 / 41017.6 4.1 1.2
2018-May-15 01:00N 55°30' W 163°24'7 6.8 310 / 81017.9 3.6 1.4
2018-May-15 00:00N 55°30' W 163°36'6 6.0 290 / 81018.3 3.7 2.0
2018-May-14 23:00N 55°24' W 163°36'1212.5 290 / 101018.5 3.5 0.8
2018-May-14 22:00N 55°12' W 163°42'0 0.0 270 / 101018.8 4.8 1.5
2018-May-14 21:00N 55°12' W 163°42'0 0.0 290 / 61018.7 4.6 1.7
2018-May-14 20:00N 55°12' W 163°42'1010.3 300 / 81018.6 5.2 1.9
2018-May-14 19:00N 55°12' W 164°00'   300 / 81018.5 3.6 0.7
2018-May-10 18:00N 53°54' W 166°30'0 0.0 988.5 3.9 0.2
2018-May-10 17:00N 53°54' W 166°30'0 0.0 130 / 1988.5 2.4-0.7
2018-May-10 16:00N 53°54' W 166°30'0 0.0 220 / 3988.4 2.0-1.9
2018-May-10 15:00N 53°54' W 166°30'0 0.0 180 / 3988.7 1.4 0.5
2018-May-10 14:00N 53°54' W 166°30'0 0.0 180 / 3988.9 1.9-0.2
2018-May-10 13:00N 53°54' W 166°30'   130 / 4989.0 1.7 0.4

Dump ship's entire track history